createdAt,value
2018-11-05T00:01:16.258Z,97795.36
2018-11-05T00:03:44.542Z,97784.84
2018-11-05T00:06:13.300Z,97778.48
2018-11-05T00:08:41.668Z,97777.53
2018-11-05T00:11:10.688Z,97776.02
2018-11-05T00:13:38.936Z,97781.16
2018-11-05T00:16:07.379Z,97783.90
2018-11-05T00:18:35.687Z,97783.52
2018-11-05T00:21:03.956Z,97790.29
2018-11-05T00:23:32.303Z,97783.67
2018-11-05T00:26:00.575Z,97793.11
2018-11-05T00:28:28.898Z,97786.93
2018-11-05T00:30:57.112Z,97786.08
2018-11-05T00:33:25.480Z,97775.75
2018-11-05T00:35:53.797Z,97775.61
2018-11-05T00:38:22.076Z,97769.08
2018-11-05T00:40:50.371Z,97760.30
2018-11-05T00:43:18.760Z,97752.59
2018-11-05T00:45:47.720Z,97750.50
2018-11-05T00:48:15.927Z,97758.23
2018-11-05T00:50:44.417Z,97750.20
2018-11-05T00:53:12.807Z,97752.42
2018-11-05T00:55:41.428Z,97764.70
2018-11-05T00:58:09.702Z,97749.52
2018-11-05T01:00:37.978Z,97745.72
2018-11-05T01:03:06.261Z,97743.63
2018-11-05T01:05:34.540Z,97735.39
2018-11-05T01:08:02.846Z,97729.70
2018-11-05T01:10:31.280Z,97725.41
2018-11-05T01:12:59.646Z,97730.59
2018-11-05T01:15:28.029Z,97734.58
2018-11-05T01:17:56.319Z,97728.72
2018-11-05T01:20:24.833Z,97728.84
2018-11-05T01:22:53.129Z,97718.62
2018-11-05T01:25:21.404Z,97724.31
2018-11-05T01:27:49.851Z,97720.12
2018-11-05T01:30:18.100Z,97712.41
2018-11-05T01:32:46.384Z,97707.52
2018-11-05T01:35:14.876Z,97698.15
2018-11-05T01:37:43.381Z,97702.25
2018-11-05T01:40:14.282Z,97699.97
2018-11-05T01:42:42.697Z,97697.24
2018-11-05T01:45:12.280Z,97698.97
2018-11-05T01:47:41.313Z,97703.83
2018-11-05T01:50:11.502Z,97699.30
2018-11-05T01:52:40.394Z,97698.36
2018-11-05T01:55:09.368Z,97697.24
2018-11-05T01:57:38.152Z,97694.34
2018-11-05T02:00:09.085Z,97693.28
2018-11-05T02:02:37.620Z,97685.93
2018-11-05T02:05:06.656Z,97674.18
2018-11-05T02:07:35.068Z,97677.11
2018-11-05T02:10:04.171Z,97677.04
2018-11-05T02:12:32.424Z,97668.55
2018-11-05T02:15:00.863Z,97670.63
2018-11-05T02:17:29.150Z,97679.75
2018-11-05T02:19:57.407Z,97681.87
2018-11-05T02:22:26.349Z,97681.19
2018-11-05T02:24:54.625Z,97683.57
2018-11-05T02:27:23.032Z,97678.76
2018-11-05T02:29:51.330Z,97673.67
2018-11-05T02:32:19.667Z,97661.87
2018-11-05T02:34:48.008Z,97656.51
2018-11-05T02:37:16.377Z,97657.38
2018-11-05T02:39:44.638Z,97659.95
2018-11-05T02:42:12.911Z,97663.11
2018-11-05T02:44:41.814Z,97659.10
2018-11-05T02:47:10.112Z,97656.45
2018-11-05T02:49:38.483Z,97644.25
2018-11-05T02:52:06.930Z,97644.23
2018-11-05T02:54:35.251Z,97635.08
2018-11-05T02:57:03.536Z,97630.33
2018-11-05T02:59:31.906Z,97634.66
2018-11-05T03:02:00.270Z,97638.83
2018-11-05T03:04:28.695Z,97638.71
2018-11-05T03:06:56.960Z,97644.41
2018-11-05T03:09:25.239Z,97645.32
2018-11-05T03:11:53.544Z,97649.75
2018-11-05T03:14:21.947Z,97657.75
2018-11-05T03:16:50.253Z,97658.83
2018-11-05T03:19:18.496Z,97659.45
2018-11-05T03:21:46.808Z,97656.94
2018-11-05T03:24:15.067Z,97654.94
2018-11-05T03:26:43.405Z,97639.64
2018-11-05T03:29:11.817Z,97641.42
2018-11-05T03:31:40.082Z,97639.46
2018-11-05T03:34:08.389Z,97647.76
2018-11-05T03:36:36.696Z,97640.31
2018-11-05T03:39:07.844Z,97649.75
2018-11-05T03:41:36.185Z,97648.53
2018-11-05T03:44:04.964Z,97650.02
2018-11-05T03:46:33.336Z,97644.41
2018-11-05T03:49:01.612Z,97634.09
2018-11-05T03:51:30.037Z,97631.14
2018-11-05T03:53:58.386Z,97643.83
2018-11-05T03:56:26.740Z,97639.94
2018-11-05T03:58:55.080Z,97641.07
2018-11-05T04:01:23.406Z,97644.23
2018-11-05T04:03:51.656Z,97653.91
2018-11-05T04:06:20.139Z,97650.14
2018-11-05T04:08:48.395Z,97664.67
2018-11-05T04:11:17.464Z,97667.30
2018-11-05T04:13:45.848Z,97651.86
2018-11-05T04:16:14.265Z,97651.23
2018-11-05T04:18:42.479Z,97659.27
2018-11-05T04:21:10.811Z,97655.23
2018-11-05T04:23:39.231Z,97646.31
2018-11-05T04:26:07.544Z,97650.01
2018-11-05T04:28:35.835Z,97650.43
2018-11-05T04:31:04.186Z,97650.28
2018-11-05T04:33:32.458Z,97659.23
2018-11-05T04:36:00.853Z,97667.17
2018-11-05T04:38:29.195Z,97670.86
2018-11-05T04:40:58.196Z,97667.20
2018-11-05T04:43:26.511Z,97666.05
2018-11-05T04:45:54.873Z,97663.61
2018-11-05T04:48:23.731Z,97654.38
2018-11-05T04:50:52.034Z,97646.50
2018-11-05T04:53:20.308Z,97642.72
2018-11-05T04:55:48.866Z,97648.61
2018-11-05T04:58:17.148Z,97643.42
2018-11-05T05:00:45.409Z,97643.73
2018-11-05T05:03:13.784Z,97642.22
2018-11-05T05:05:42.353Z,97638.97
2018-11-05T05:08:10.641Z,97631.22
2018-11-05T05:10:39.090Z,97630.28
2018-11-05T05:13:07.445Z,97624.63
2018-11-05T05:15:35.728Z,97627.88
2018-11-05T05:18:04.171Z,97631.45
2018-11-05T05:20:32.477Z,97620.72
2018-11-05T05:23:01.084Z,97610.25
2018-11-05T05:25:29.198Z,97610.67
2018-11-05T05:27:57.481Z,97621.14
2018-11-05T05:30:25.804Z,97627.30
2018-11-05T05:32:54.141Z,97627.15
2018-11-05T05:35:22.392Z,97635.58
2018-11-05T05:37:50.748Z,97641.63
2018-11-05T05:40:19.018Z,97630.09
2018-11-05T05:42:47.277Z,97628.84
2018-11-05T05:45:15.631Z,97634.83
2018-11-05T05:47:44.030Z,97640.16
2018-11-05T05:50:14.539Z,97646.98
2018-11-05T05:52:43.829Z,97648.31
2018-11-05T05:55:12.289Z,97650.97
2018-11-05T05:57:40.565Z,97649.85
2018-11-05T06:00:11.799Z,97642.02
2018-11-05T06:02:40.355Z,97639.91
2018-11-05T06:05:10.424Z,97635.79
2018-11-05T06:07:39.477Z,97638.17
2018-11-05T06:10:08.220Z,97634.91
2018-11-05T06:12:36.579Z,97635.16
2018-11-05T06:15:05.348Z,97630.27
2018-11-05T06:17:33.659Z,97633.61
2018-11-05T06:20:01.986Z,97630.42
2018-11-05T06:22:30.362Z,97637.66
2018-11-05T06:24:59.242Z,97642.25
2018-11-05T06:27:27.503Z,97643.43
2018-11-05T06:29:55.858Z,97652.86
2018-11-05T06:32:24.212Z,97658.28
2018-11-05T06:34:52.523Z,97654.39
2018-11-05T06:37:20.902Z,97656.55
2018-11-05T06:39:49.283Z,97654.20
2018-11-05T06:42:17.593Z,97660.87
2018-11-05T06:44:46.059Z,97658.06
2018-11-05T06:47:14.336Z,97657.30
2018-11-05T06:49:42.685Z,97657.53
2018-11-05T06:52:10.979Z,97658.29
2018-11-05T06:54:39.360Z,97648.95
2018-11-05T06:57:08.015Z,97639.38
2018-11-05T06:59:36.378Z,97644.94
2018-11-05T07:02:04.776Z,97645.50
2018-11-05T07:04:33.101Z,97649.16
2018-11-05T07:07:01.413Z,97655.09
2018-11-05T07:09:29.679Z,97661.66
2018-11-05T07:11:58.046Z,97662.27
2018-11-05T07:14:26.404Z,97665.41
2018-11-05T07:16:54.792Z,97668.05
2018-11-05T07:19:23.149Z,97662.41
2018-11-05T07:21:51.791Z,97668.27
2018-11-05T07:24:20.256Z,97670.96
2018-11-05T07:26:48.568Z,97671.23
2018-11-05T07:29:16.921Z,97671.01
2018-11-05T07:31:45.236Z,97667.80
2018-11-05T07:34:13.603Z,97652.99
2018-11-05T07:36:42.048Z,97658.45
2018-11-05T07:39:11.577Z,97653.23
2018-11-05T07:41:40.312Z,97657.62
2018-11-05T07:44:08.814Z,97656.40
2018-11-05T07:46:37.311Z,97667.76
2018-11-05T07:49:05.808Z,97675.41
2018-11-05T07:51:34.462Z,97667.84
2018-11-05T07:54:02.776Z,97663.27
2018-11-05T07:56:31.129Z,97655.47
2018-11-05T07:58:59.373Z,97645.43
2018-11-05T08:01:27.648Z,97640.10
2018-11-05T08:03:56.023Z,97642.56
2018-11-05T08:06:24.348Z,97645.89
2018-11-05T08:08:52.734Z,97658.78
2018-11-05T08:11:21.183Z,97663.94
2018-11-05T08:13:49.489Z,97665.25
2018-11-05T08:16:17.783Z,97661.67
2018-11-05T08:18:46.105Z,97666.25
2018-11-05T08:21:14.451Z,97661.09
2018-11-05T08:23:42.729Z,97662.14
2018-11-05T08:26:11.024Z,97667.00
2018-11-05T08:28:39.389Z,97666.98
2018-11-05T08:31:07.760Z,97656.39
2018-11-05T08:33:36.241Z,97643.52
2018-11-05T08:36:04.676Z,97640.95
2018-11-05T08:38:33.422Z,97636.15
2018-11-05T08:41:01.730Z,97637.81
2018-11-05T08:43:30.160Z,97647.86
2018-11-05T08:45:58.436Z,97640.63
2018-11-05T08:48:30.284Z,97631.58
2018-11-05T08:50:58.733Z,97637.94
2018-11-05T08:53:26.924Z,97642.95
2018-11-05T08:55:55.260Z,97643.63
2018-11-05T08:58:24.656Z,97643.77
2018-11-05T09:00:54.989Z,97652.44
2018-11-05T09:03:23.368Z,97655.86
2018-11-05T09:05:51.733Z,97644.81
2018-11-05T09:08:20.080Z,97653.62
2018-11-05T09:10:48.661Z,97657.86
2018-11-05T09:13:16.768Z,97643.89
2018-11-05T09:15:45.084Z,97643.52
2018-11-05T09:18:13.386Z,97653.28
2018-11-05T09:20:41.822Z,97649.78
2018-11-05T09:23:10.125Z,97641.94
2018-11-05T09:25:38.486Z,97645.58
2018-11-05T09:28:07.179Z,97644.38
2018-11-05T09:30:35.347Z,97651.58
2018-11-05T09:33:03.650Z,97650.33
2018-11-05T09:35:32.084Z,97637.73
2018-11-05T09:38:00.430Z,97644.37
2018-11-05T09:40:28.685Z,97651.58
2018-11-05T09:42:57.083Z,97649.66
2018-11-05T09:45:26.628Z,97646.37
2018-11-05T09:47:54.925Z,97638.09
2018-11-05T09:50:23.394Z,97644.78
2018-11-05T09:52:51.634Z,97641.94
2018-11-05T09:55:20.072Z,97645.67
2018-11-05T09:57:48.461Z,97650.90
2018-11-05T10:00:19.659Z,97645.91
2018-11-05T10:02:53.282Z,97637.09
2018-11-05T10:05:21.458Z,97641.12
2018-11-05T10:07:49.725Z,97642.34
2018-11-05T10:10:18.594Z,97633.75
2018-11-05T10:12:46.847Z,97631.63
2018-11-05T10:15:16.232Z,97630.41
2018-11-05T10:17:44.579Z,97633.81
2018-11-05T10:20:16.522Z,97625.19
2018-11-05T10:22:45.453Z,97615.03
2018-11-05T10:25:14.224Z,97610.42
2018-11-05T10:27:42.538Z,97617.06
2018-11-05T10:30:17.516Z,97620.53
2018-11-05T10:32:45.899Z,97609.05
2018-11-05T10:35:15.200Z,97621.43
2018-11-05T10:37:43.522Z,97620.74
2018-11-05T10:40:14.563Z,97616.50
2018-11-05T10:42:43.510Z,97616.09
2018-11-05T10:45:13.335Z,97610.44
2018-11-05T10:47:41.647Z,97597.67
2018-11-05T10:50:11.720Z,97591.83
2018-11-05T10:52:39.946Z,97588.40
2018-11-05T10:55:08.468Z,97584.70
2018-11-05T10:57:36.784Z,97578.38
2018-11-05T11:00:08.500Z,97572.66
2018-11-05T11:02:37.696Z,97582.30
2018-11-05T11:05:07.197Z,97583.61
2018-11-05T11:07:35.556Z,97575.85
2018-11-05T11:10:03.930Z,97575.34
2018-11-05T11:12:32.240Z,97565.32
2018-11-05T11:15:00.577Z,97570.35
2018-11-05T11:17:28.882Z,97573.78
2018-11-05T11:19:57.186Z,97568.14
2018-11-05T11:22:25.464Z,97570.81
2018-11-05T11:24:53.832Z,97562.48
2018-11-05T11:27:22.122Z,97560.73
2018-11-05T11:29:50.470Z,97561.21
2018-11-05T11:32:18.904Z,97555.78
2018-11-05T11:34:47.188Z,97546.80
2018-11-05T11:37:15.533Z,97548.02
2018-11-05T11:39:44.088Z,97553.84
2018-11-05T11:42:12.563Z,97540.75
2018-11-05T11:44:40.957Z,97532.20
2018-11-05T11:47:10.096Z,97523.92
2018-11-05T11:49:38.499Z,97534.03
2018-11-05T11:52:06.952Z,97538.58
2018-11-05T11:54:36.141Z,97527.38
2018-11-05T11:57:04.466Z,97518.44
2018-11-05T11:59:32.969Z,97517.30
2018-11-05T12:02:06.746Z,97524.05
2018-11-05T12:04:35.131Z,97511.32
2018-11-05T12:07:03.441Z,97504.37
2018-11-05T12:09:31.783Z,97506.41
2018-11-05T12:12:00.083Z,97497.48
2018-11-05T12:14:28.441Z,97499.47
2018-11-05T12:16:56.713Z,97501.04
2018-11-05T12:19:25.091Z,97495.90
2018-11-05T12:21:53.474Z,97493.63
2018-11-05T12:24:21.761Z,97492.11
2018-11-05T12:26:50.129Z,97489.28
2018-11-05T12:29:18.461Z,97499.89
2018-11-05T12:31:47.265Z,97500.80
2018-11-05T12:34:15.534Z,97499.63
2018-11-05T12:36:44.010Z,97485.86
2018-11-05T12:39:12.614Z,97485.02
2018-11-05T12:41:41.384Z,97475.93
2018-11-05T12:44:10.761Z,97471.94
2018-11-05T12:46:40.206Z,97471.25
2018-11-05T12:49:08.665Z,97479.50
2018-11-05T12:51:37.038Z,97483.59
2018-11-05T12:54:05.545Z,97478.93
2018-11-05T12:56:34.070Z,97471.88
2018-11-05T12:59:02.551Z,97468.20
2018-11-05T13:01:31.470Z,97464.41
2018-11-05T13:04:00.036Z,97468.13
2018-11-05T13:06:28.366Z,97462.87
2018-11-05T13:08:56.812Z,97455.29
2018-11-05T13:11:25.439Z,97448.34
2018-11-05T13:13:53.707Z,97445.38
2018-11-05T13:16:22.139Z,97427.81
2018-11-05T13:18:50.521Z,97437.47
2018-11-05T13:21:19.040Z,97438.72
2018-11-05T13:23:47.710Z,97432.83
2018-11-05T13:26:16.583Z,97442.75
2018-11-05T13:28:44.902Z,97439.75
2018-11-05T13:31:13.318Z,97438.50
2018-11-05T13:33:41.852Z,97437.67
2018-11-05T13:36:10.183Z,97433.53
2018-11-05T13:38:38.921Z,97435.38
2018-11-05T13:41:06.981Z,97435.28
2018-11-05T13:43:35.269Z,97434.64
2018-11-05T13:46:03.868Z,97432.87
2018-11-05T13:48:32.977Z,97435.89
2018-11-05T13:51:00.776Z,97438.78
2018-11-05T13:53:29.177Z,97427.72
2018-11-05T13:55:57.478Z,97424.71
2018-11-05T13:58:25.939Z,97432.95
2018-11-05T14:00:54.300Z,97438.57
2018-11-05T14:03:22.777Z,97434.65
2018-11-05T14:05:51.274Z,97426.92
2018-11-05T14:08:19.655Z,97427.55
2018-11-05T14:10:47.910Z,97431.70
2018-11-05T14:13:16.364Z,97435.00
2018-11-05T14:15:45.408Z,97435.02
2018-11-05T14:18:13.754Z,97434.24
2018-11-05T14:20:42.060Z,97426.59
2018-11-05T14:23:10.495Z,97421.17
2018-11-05T14:25:39.047Z,97432.59
2018-11-05T14:28:08.909Z,97434.61
2018-11-05T14:30:36.881Z,97441.02
2018-11-05T14:33:05.503Z,97440.58
2018-11-05T14:35:33.792Z,97436.80
2018-11-05T14:38:02.178Z,97441.77
2018-11-05T14:40:30.492Z,97442.95
2018-11-05T14:42:58.869Z,97432.27
2018-11-05T14:45:27.169Z,97434.64
2018-11-05T14:47:55.449Z,97440.11
2018-11-05T14:50:24.182Z,97436.54
2018-11-05T14:52:52.734Z,97441.67
2018-11-05T14:55:21.222Z,97447.16
2018-11-05T14:57:50.703Z,97444.91
2018-11-05T15:00:20.634Z,97444.97
2018-11-05T15:02:49.631Z,97440.99
2018-11-05T15:05:17.987Z,97444.84
2018-11-05T15:07:47.130Z,97448.23
2018-11-05T15:10:17.927Z,97449.03
2018-11-05T15:12:46.495Z,97452.50
2018-11-05T15:15:15.484Z,97457.25
2018-11-05T15:17:44.275Z,97455.07
2018-11-05T15:20:14.074Z,97457.98
2018-11-05T15:22:42.564Z,97454.61
2018-11-05T15:25:11.270Z,97461.13
2018-11-05T15:27:39.745Z,97460.45
2018-11-05T15:30:18.174Z,97455.49
2018-11-05T15:32:46.748Z,97450.64
2018-11-05T15:35:15.431Z,97449.88
2018-11-05T15:37:44.323Z,97449.22
2018-11-05T15:40:14.482Z,97445.70
2018-11-05T15:42:43.005Z,97442.30
2018-11-05T15:45:12.870Z,97449.42
2018-11-05T15:47:42.304Z,97455.88
2018-11-05T15:50:17.424Z,97452.20
2018-11-05T15:52:46.227Z,97454.03
2018-11-05T15:55:14.220Z,97459.76
2018-11-05T15:57:42.664Z,97469.77
2018-11-05T16:00:18.149Z,97470.15
2018-11-05T16:02:49.457Z,97460.86
2018-11-05T16:05:18.199Z,97466.53
2018-11-05T16:07:46.856Z,97466.75
2018-11-05T16:10:15.477Z,97463.45
2018-11-05T16:12:44.819Z,97461.38
2018-11-05T16:15:13.768Z,97463.66
2018-11-05T16:17:42.082Z,97461.90
2018-11-05T16:20:13.593Z,97470.22
2018-11-05T16:22:42.400Z,97474.52
2018-11-05T16:25:10.891Z,97479.99
2018-11-05T16:27:39.281Z,97481.48
2018-11-05T16:30:09.704Z,97482.14
2018-11-05T16:32:38.179Z,97488.44
2018-11-05T16:35:06.892Z,97496.25
2018-11-05T16:37:35.217Z,97494.02
2018-11-05T16:40:04.518Z,97492.67
2018-11-05T16:42:32.812Z,97491.13
2018-11-05T16:45:01.121Z,97490.06
2018-11-05T16:47:29.519Z,97492.41
2018-11-05T16:49:57.873Z,97488.80
2018-11-05T16:52:26.426Z,97487.19
2018-11-05T16:54:54.829Z,97485.48
2018-11-05T16:57:23.256Z,97496.61
2018-11-05T16:59:51.716Z,97493.34
2018-11-05T17:02:20.661Z,97491.50
2018-11-05T17:04:48.584Z,97498.48
2018-11-05T17:07:17.076Z,97495.69
2018-11-05T17:09:45.430Z,97498.17
2018-11-05T17:12:13.888Z,97500.15
2018-11-05T17:14:42.338Z,97498.88
2018-11-05T17:17:10.640Z,97496.29
2018-11-05T17:19:38.985Z,97499.17
2018-11-05T17:22:07.429Z,97503.69
2018-11-05T17:24:35.780Z,97504.94
2018-11-05T17:27:04.040Z,97508.45
2018-11-05T17:29:32.353Z,97507.36
2018-11-05T17:32:00.728Z,97517.66
2018-11-05T17:34:29.161Z,97509.78
2018-11-05T17:36:57.451Z,97506.83
2018-11-05T17:39:25.735Z,97516.23
2018-11-05T17:41:54.118Z,97511.48
2018-11-05T17:44:22.441Z,97515.45
2018-11-05T17:46:50.891Z,97513.19
2018-11-05T17:49:19.386Z,97514.67
2018-11-05T17:51:47.807Z,97517.16
2018-11-05T17:54:16.099Z,97518.48
2018-11-05T17:56:44.515Z,97523.34
2018-11-05T17:59:12.779Z,97517.66
2018-11-05T18:01:41.069Z,97522.98
2018-11-05T18:04:09.457Z,97531.62
2018-11-05T18:06:37.755Z,97533.20
2018-11-05T18:09:09.291Z,97531.39
2018-11-05T18:11:37.789Z,97531.77
2018-11-05T18:14:06.249Z,97533.94
2018-11-05T18:16:34.549Z,97535.86
2018-11-05T18:19:02.991Z,97533.58
2018-11-05T18:21:31.308Z,97529.01
2018-11-05T18:23:59.759Z,97535.63
2018-11-05T18:26:28.149Z,97534.43
2018-11-05T18:28:56.855Z,97533.69
2018-11-05T18:31:25.206Z,97534.77
2018-11-05T18:33:53.664Z,97540.80
2018-11-05T18:36:22.099Z,97543.57
2018-11-05T18:38:50.384Z,97536.83
2018-11-05T18:41:18.741Z,97543.31
2018-11-05T18:43:47.113Z,97525.98
2018-11-05T18:46:15.553Z,97537.19
2018-11-05T18:48:43.873Z,97542.84
2018-11-05T18:51:12.286Z,97550.78
2018-11-05T18:53:40.659Z,97552.08
2018-11-05T18:56:08.999Z,97549.80
2018-11-05T18:58:37.471Z,97548.22
2018-11-05T19:01:05.943Z,97548.36
2018-11-05T19:03:34.495Z,97556.13
2018-11-05T19:06:02.843Z,97552.11
2018-11-05T19:08:31.286Z,97555.28
2018-11-05T19:10:59.693Z,97556.50
2018-11-05T19:13:28.044Z,97563.28
2018-11-05T19:15:56.418Z,97565.26
2018-11-05T19:18:24.855Z,97566.47
2018-11-05T19:20:53.186Z,97569.20
2018-11-05T19:23:21.989Z,97565.68
2018-11-05T19:25:50.181Z,97566.37
2018-11-05T19:28:18.517Z,97570.97
2018-11-05T19:30:46.851Z,97576.97
2018-11-05T19:33:15.240Z,97580.94
2018-11-05T19:35:43.596Z,97581.53
2018-11-05T19:38:11.945Z,97577.06
2018-11-05T19:40:40.254Z,97570.45
2018-11-05T19:43:08.723Z,97566.42
2018-11-05T19:45:37.050Z,97564.36
2018-11-05T19:48:05.558Z,97565.01
2018-11-05T19:50:34.035Z,97567.44
2018-11-05T19:53:02.539Z,97567.56
2018-11-05T19:55:30.933Z,97559.34
2018-11-05T19:57:59.274Z,97566.49
2018-11-05T20:00:28.729Z,97565.39
2018-11-05T20:02:58.274Z,97566.11
2018-11-05T20:05:26.796Z,97570.84
2018-11-05T20:07:56.085Z,97572.88
2018-11-05T20:10:24.380Z,97579.02
2018-11-05T20:12:52.873Z,97580.05
2018-11-05T20:15:21.394Z,97579.88
2018-11-05T20:17:50.960Z,97585.44
2018-11-05T20:20:21.072Z,97578.29
2018-11-05T20:22:49.408Z,97580.94
2018-11-05T20:25:17.949Z,97584.98
2018-11-05T20:27:46.419Z,97579.64
2018-11-05T20:30:19.516Z,97576.53
2018-11-05T20:32:49.419Z,97581.48
2018-11-05T20:35:17.597Z,97583.14
2018-11-05T20:37:45.904Z,97587.32
2018-11-05T20:40:16.442Z,97586.98
2018-11-05T20:42:45.979Z,97590.69
2018-11-05T20:45:14.803Z,97587.06
2018-11-05T20:47:44.523Z,97582.67
2018-11-05T20:50:13.604Z,97588.61
2018-11-05T20:52:42.163Z,97597.68
2018-11-05T20:55:11.912Z,97581.04
2018-11-05T20:57:41.008Z,97579.91
2018-11-05T21:00:11.146Z,97586.75
2018-11-05T21:02:40.087Z,97581.04
2018-11-05T21:05:09.767Z,97585.41
2018-11-05T21:07:39.305Z,97580.12
2018-11-05T21:10:09.600Z,97577.13
2018-11-05T21:12:39.159Z,97580.84
2018-11-05T21:15:12.299Z,97575.42
2018-11-05T21:17:41.039Z,97577.95
2018-11-05T21:20:09.433Z,97574.42
2018-11-05T21:22:37.931Z,97579.25
2018-11-05T21:25:06.461Z,97584.92
2018-11-05T21:27:34.715Z,97580.96
2018-11-05T21:30:03.435Z,97582.80
2018-11-05T21:32:33.163Z,97586.44
2018-11-05T21:35:01.580Z,97583.86
2018-11-05T21:37:29.886Z,97577.93
2018-11-05T21:39:58.251Z,97577.48
2018-11-05T21:42:26.851Z,97582.16
2018-11-05T21:44:55.100Z,97582.02
2018-11-05T21:47:24.319Z,97586.38
2018-11-05T21:49:53.251Z,97581.73
2018-11-05T21:52:21.599Z,97582.55
2018-11-05T21:54:49.920Z,97578.59
2018-11-05T21:57:18.237Z,97580.23
2018-11-05T21:59:46.557Z,97579.66
2018-11-05T22:02:14.914Z,97579.09
2018-11-05T22:04:43.253Z,97575.29
2018-11-05T22:07:15.406Z,97575.55
2018-11-05T22:09:45.021Z,97570.13
2018-11-05T22:12:13.500Z,97568.49
2018-11-05T22:14:41.794Z,97568.81
2018-11-05T22:17:11.184Z,97572.83
2018-11-05T22:19:39.554Z,97573.36
2018-11-05T22:22:07.845Z,97573.62
2018-11-05T22:24:36.250Z,97572.89
2018-11-05T22:27:04.718Z,97569.40
2018-11-05T22:29:33.053Z,97570.63
2018-11-05T22:32:01.467Z,97574.46
2018-11-05T22:34:29.772Z,97571.09
2018-11-05T22:36:58.104Z,97565.03
2018-11-05T22:39:26.662Z,97572.57
2018-11-05T22:41:55.032Z,97566.87
2018-11-05T22:44:24.262Z,97565.50
2018-11-05T22:46:52.602Z,97570.39
2018-11-05T22:49:20.929Z,97563.53
2018-11-05T22:51:50.204Z,97559.05
2018-11-05T22:54:18.504Z,97564.27
2018-11-05T22:56:47.091Z,97569.23
2018-11-05T22:59:15.672Z,97569.27
2018-11-05T23:01:49.148Z,97568.23
2018-11-05T23:04:17.493Z,97569.08
2018-11-05T23:06:45.902Z,97566.39
2018-11-05T23:09:14.210Z,97558.40
2018-11-05T23:11:42.590Z,97561.28
2018-11-05T23:14:10.844Z,97565.64
2018-11-05T23:16:39.116Z,97569.37
2018-11-05T23:19:07.404Z,97569.59
2018-11-05T23:21:35.731Z,97570.16
2018-11-05T23:24:04.562Z,97576.25
2018-11-05T23:26:32.871Z,97567.27
2018-11-05T23:29:01.160Z,97570.37
2018-11-05T23:31:29.573Z,97568.94
2018-11-05T23:33:57.927Z,97561.53
2018-11-05T23:36:26.229Z,97553.80
2018-11-05T23:38:54.803Z,97552.20
2018-11-05T23:41:23.126Z,97560.41
2018-11-05T23:43:51.444Z,97568.83
2018-11-05T23:46:19.724Z,97565.02
2018-11-05T23:48:48.042Z,97560.59
2018-11-05T23:51:16.384Z,97564.16
2018-11-05T23:53:44.923Z,97559.91
2018-11-05T23:56:13.240Z,97566.14
2018-11-05T23:58:41.566Z,97557.98
